Time;durP1;ratioP1;P1;durP2;ratioP2;P2;SDS_P1;SDS_P2;PMS_P1;PMS_P2;Temp;Humidity;BMP_temperature;BMP_pressure;BME280_temperature;BME280_humidity;BME280_pressure;Samples;Min_cycle;Max_cycle;Signal;HPM_P1;HPM_P2
2022/01/06 00:00:46;;;;;;;0.60;0.60;;;3.30;99.90;;;;;;5115277;28;20047;-76
2022/01/06 00:03:12;;;;;;;0.60;0.60;;;3.30;99.90;;;;;;5114492;28;20039;-77
2022/01/06 00:05:37;;;;;;;0.60;0.60;;;3.20;99.90;;;;;;5097675;28;20047;-76
2022/01/06 00:08:03;;;;;;;0.60;0.60;;;3.50;99.90;;;;;;5114246;28;20039;-76
2022/01/06 00:10:30;;;;;;;0.98;0.98;;;3.20;99.90;;;;;;5114018;28;20491;-76
2022/01/06 00:18:14;;;;;;;0.60;0.60;;;3.00;99.90;;;;;;5115107;27;20044;-77
2022/01/06 00:25:49;;;;;;;0.68;0.68;;;2.80;99.90;;;;;;5115091;28;20059;-76
2022/01/06 00:28:15;;;;;;;0.60;0.60;;;2.70;99.90;;;;;;5114933;28;20108;-77
2022/01/06 00:30:41;;;;;;;0.70;0.70;;;2.70;99.90;;;;;;5114555;28;20051;-76
2022/01/06 00:33:07;;;;;;;0.60;0.60;;;2.60;99.90;;;;;;5113950;28;20048;-76
2022/01/06 00:35:32;;;;;;;0.60;0.60;;;2.60;99.90;;;;;;5114888;28;20043;-76
2022/01/06 00:37:58;;;;;;;0.60;0.60;;;2.50;99.90;;;;;;5114795;28;20044;-77
2022/01/06 00:40:24;;;;;;;0.60;0.60;;;2.50;99.90;;;;;;5114769;28;20514;-77
2022/01/06 00:42:49;;;;;;;0.60;0.60;;;2.40;99.90;;;;;;5114642;28;20459;-76
2022/01/06 00:45:15;;;;;;;0.60;0.60;;;2.40;99.90;;;;;;5114361;28;20043;-76
2022/01/06 00:47:40;;;;;;;0.60;0.60;;;2.30;99.90;;;;;;5097166;28;20082;-76
2022/01/06 00:50:06;;;;;;;0.60;0.60;;;2.40;99.90;;;;;;5113341;28;20043;-76
2022/01/06 00:52:33;;;;;;;0.60;0.60;;;2.30;99.90;;;;;;5114404;28;20043;-76
2022/01/06 00:54:58;;;;;;;0.70;0.70;;;2.30;99.90;;;;;;5114587;28;20048;-76
2022/01/06 00:57:24;;;;;;;0.60;0.60;;;2.30;99.90;;;;;;5114426;28;20046;-76
2022/01/06 00:59:50;;;;;;;0.70;0.70;;;2.30;99.90;;;;;;5114410;28;20437;-76
2022/01/06 01:02:15;;;;;;;0.60;0.60;;;2.60;99.90;;;;;;5113217;28;20046;-76
2022/01/06 01:04:41;;;;;;;0.60;0.60;;;2.30;99.90;;;;;;5114382;28;20089;-76
2022/01/06 01:07:07;;;;;;;0.60;0.60;;;2.30;99.90;;;;;;5114340;28;20480;-76
2022/01/06 01:09:32;;;;;;;0.60;0.60;;;2.30;99.90;;;;;;5113251;28;20035;-76
2022/01/06 01:12:03;;;;;;;0.60;0.60;;;2.40;99.90;;;;;;5114277;28;20108;-77
2022/01/06 01:14:31;;;;;;;0.60;0.60;;;2.40;99.90;;;;;;5113083;28;20044;-76
2022/01/06 01:16:59;;;;;;;0.60;0.60;;;2.40;99.90;;;;;;5114182;28;20047;-76
2022/01/06 01:19:26;;;;;;;0.60;0.60;;;2.40;99.90;;;;;;5113866;28;20398;-76
2022/01/06 01:21:52;;;;;;;0.70;0.70;;;2.40;99.90;;;;;;5114181;28;20437;-76
2022/01/06 01:24:19;;;;;;;0.70;0.70;;;2.40;99.90;;;;;;5114154;28;20128;-76
2022/01/06 01:26:45;;;;;;;0.60;0.60;;;2.40;99.90;;;;;;5114113;28;20055;-76
2022/01/06 01:29:16;;;;;;;0.70;0.70;;;2.30;99.90;;;;;;5113686;28;20040;-76
2022/01/06 01:31:48;;;;;;;1.45;1.35;;;2.30;99.90;;;;;;5114335;28;20407;-76
2022/01/06 01:34:16;;;;;;;0.70;0.70;;;2.20;99.90;;;;;;5113581;28;20109;-76
2022/01/06 01:36:43;;;;;;;0.70;0.70;;;2.20;99.90;;;;;;5114019;28;20536;-76
2022/01/06 01:39:10;;;;;;;0.70;0.70;;;2.20;99.90;;;;;;5113180;28;20066;-76
2022/01/06 01:41:35;;;;;;;0.60;0.60;;;2.10;99.90;;;;;;5113968;28;20054;-76
2022/01/06 01:44:05;;;;;;;0.60;0.60;;;2.00;99.90;;;;;;5112795;28;20130;-76
2022/01/06 01:46:31;;;;;;;0.70;0.70;;;2.00;99.90;;;;;;5113528;28;20432;-76
2022/01/06 01:51:35;;;;;;;0.70;0.70;;;1.90;99.90;;;;;;5113987;28;20086;-76
2022/01/06 01:54:01;;;;;;;0.70;0.70;;;1.80;99.90;;;;;;5113867;28;20098;-76
2022/01/06 01:56:27;;;;;;;0.65;0.65;;;1.80;99.90;;;;;;5114414;28;20051;-76
2022/01/06 01:58:53;;;;;;;0.70;0.70;;;1.70;99.90;;;;;;5113964;28;20054;-76
2022/01/06 02:01:18;;;;;;;0.70;0.70;;;1.70;99.90;;;;;;5117983;28;20138;-76
2022/01/06 02:03:44;;;;;;;0.70;0.70;;;1.70;99.90;;;;;;5117879;28;20502;-76
2022/01/06 02:06:09;;;;;;;0.70;0.70;;;1.60;99.90;;;;;;5117743;28;20039;-75
2022/01/06 02:08:35;;;;;;;0.70;0.70;;;1.70;99.90;;;;;;5117665;28;20048;-76
2022/01/06 02:11:00;;;;;;;0.60;0.60;;;1.60;99.90;;;;;;5117496;28;20054;-75
2022/01/06 02:13:29;;;;;;;0.70;0.70;;;1.60;99.90;;;;;;5116598;28;20480;-75
2022/01/06 02:16:00;;;;;;;0.70;0.70;;;1.60;99.90;;;;;;5116302;28;20475;-75
2022/01/06 02:18:27;;;;;;;0.68;0.68;;;1.60;99.90;;;;;;5117608;28;20043;-77
2022/01/06 02:20:54;;;;;;;0.60;0.60;;;1.60;99.90;;;;;;5117453;28;20053;-75
2022/01/06 02:23:21;;;;;;;0.70;0.70;;;1.50;99.90;;;;;;5117363;28;20079;-75
2022/01/06 02:25:47;;;;;;;;;;;1.50;99.90;;;;;;5117738;28;20047;-76
2022/01/06 02:28:13;;;;;;;0.60;0.60;;;1.40;99.90;;;;;;5117234;28;20306;-75
2022/01/06 02:30:39;;;;;;;0.70;0.70;;;1.40;99.90;;;;;;5117169;28;20138;-75
2022/01/06 02:33:06;;;;;;;0.75;0.75;;;1.40;99.90;;;;;;5117230;28;20090;-75
2022/01/06 02:35:32;;;;;;;0.70;0.70;;;1.30;99.90;;;;;;5116367;28;20047;-77
2022/01/06 02:37:58;;;;;;;0.70;0.70;;;1.30;99.90;;;;;;5117067;28;20088;-75
2022/01/06 02:40:26;;;;;;;0.70;0.70;;;1.30;99.90;;;;;;5117608;28;20039;-76
2022/01/06 02:42:55;;;;;;;0.70;0.70;;;1.30;99.90;;;;;;5116035;28;20126;-76
2022/01/06 02:45:25;;;;;;;1.10;1.08;;;1.30;99.90;;;;;;5115783;28;20043;-76
2022/01/06 02:47:50;;;;;;;0.80;0.80;;;1.30;99.90;;;;;;5116909;28;20479;-75
2022/01/06 02:50:17;;;;;;;0.70;0.70;;;1.30;99.90;;;;;;5116921;28;20042;-75
2022/01/06 02:52:43;;;;;;;;;;;1.40;99.90;;;;;;5117044;28;20036;-75
2022/01/06 02:55:12;;;;;;;0.70;0.70;;;1.20;99.90;;;;;;5117098;28;19931;-75
2022/01/06 02:57:38;;;;;;;0.70;0.70;;;1.20;99.90;;;;;;5116756;28;20039;-76
2022/01/06 03:00:05;;;;;;;0.70;0.70;;;1.20;99.90;;;;;;5115766;28;20044;-76
2022/01/06 03:02:31;;;;;;;0.70;0.70;;;1.20;99.90;;;;;;5116596;28;20073;-76
2022/01/06 03:04:56;;;;;;;0.70;0.70;;;1.10;99.90;;;;;;5115676;28;20051;-76
2022/01/06 03:07:22;;;;;;;0.70;0.70;;;1.10;99.90;;;;;;5116460;28;20044;-77
2022/01/06 03:09:54;;;;;;;0.70;0.70;;;1.10;99.90;;;;;;5115562;28;20051;-77
2022/01/06 03:12:32;;;;;;;0.70;0.70;;;1.00;99.90;;;;;;5114890;28;20047;-76
2022/01/06 03:14:58;;;;;;;0.70;0.70;;;1.00;99.90;;;;;;5116583;28;20051;-77
2022/01/06 03:17:24;;;;;;;0.70;0.70;;;0.90;99.90;;;;;;5116304;28;20046;-75
2022/01/06 03:19:49;;;;;;;0.70;0.70;;;0.90;99.90;;;;;;5116320;28;20035;-76
2022/01/06 03:22:15;;;;;;;0.80;0.80;;;0.90;99.90;;;;;;5115560;28;20134;-76
2022/01/06 03:24:41;;;;;;;0.70;0.70;;;0.90;99.90;;;;;;5116303;28;20036;-76
2022/01/06 03:27:07;;;;;;;0.68;0.68;;;1.00;99.90;;;;;;5116206;28;20139;-76
2022/01/06 03:29:33;;;;;;;0.70;0.70;;;0.90;99.90;;;;;;5115020;28;20123;-75
2022/01/06 03:31:59;;;;;;;0.70;0.70;;;1.00;99.90;;;;;;5116139;28;20047;-76
2022/01/06 03:34:26;;;;;;;0.70;0.70;;;0.90;99.90;;;;;;5115960;28;20511;-76
2022/01/06 03:36:52;;;;;;;0.70;0.70;;;0.90;99.90;;;;;;5115922;28;20144;-76
2022/01/06 03:39:18;;;;;;;0.70;0.70;;;1.00;99.90;;;;;;5115982;28;20549;-75
2022/01/06 03:41:43;;;;;;;0.70;0.70;;;1.00;99.90;;;;;;5114664;28;20134;-77
2022/01/06 03:44:09;;;;;;;0.70;0.70;;;1.00;99.90;;;;;;5115869;28;20084;-76
2022/01/06 03:46:34;;;;;;;0.70;0.70;;;1.00;99.90;;;;;;5115812;28;20085;-76
2022/01/06 03:49:00;;;;;;;0.70;0.70;;;0.90;99.90;;;;;;5115591;28;20040;-77
2022/01/06 03:51:26;;;;;;;0.70;0.70;;;1.10;99.90;;;;;;5115685;28;20051;-75
2022/01/06 03:53:51;;;;;;;0.70;0.70;;;0.90;99.90;;;;;;5115557;28;20062;-76
2022/01/06 03:56:17;;;;;;;0.70;0.70;;;0.80;99.90;;;;;;5114476;28;20089;-76
2022/01/06 03:58:44;;;;;;;0.70;0.70;;;0.80;99.90;;;;;;5115548;28;20484;-76
2022/01/06 04:01:10;;;;;;;0.70;0.70;;;0.40;99.90;;;;;;5114549;28;20120;-75
2022/01/06 04:03:36;;;;;;;0.70;0.70;;;0.80;99.90;;;;;;5115419;28;20398;-77
2022/01/06 04:06:02;;;;;;;0.70;0.70;;;0.70;99.90;;;;;;5114438;28;20047;-76
2022/01/06 04:08:28;;;;;;;0.70;0.70;;;0.70;99.90;;;;;;5115358;28;20040;-76
2022/01/06 04:10:53;;;;;;;0.80;0.80;;;0.70;99.90;;;;;;5115287;28;20039;-76
2022/01/06 04:13:19;;;;;;;0.70;0.70;;;0.60;99.90;;;;;;5115517;28;20078;-75
2022/01/06 04:15:45;;;;;;;0.70;0.70;;;0.60;99.90;;;;;;5114248;28;20043;-75
2022/01/06 04:18:11;;;;;;;0.70;0.70;;;0.50;99.90;;;;;;5115118;28;20043;-75
2022/01/06 04:20:37;;;;;;;0.70;0.70;;;0.50;99.90;;;;;;5115174;28;20391;-78
2022/01/06 04:23:02;;;;;;;0.70;0.70;;;0.50;99.90;;;;;;5113804;28;20035;-76
2022/01/06 04:25:28;;;;;;;0.70;0.70;;;0.40;99.90;;;;;;5115011;28;20083;-76
2022/01/06 04:27:53;;;;;;;0.70;0.70;;;0.40;99.90;;;;;;5115156;28;20126;-76
2022/01/06 04:30:19;;;;;;;0.80;0.80;;;0.40;99.90;;;;;;5114877;28;20043;-76
2022/01/06 04:32:45;;;;;;;0.80;0.80;;;0.30;99.90;;;;;;5115000;28;20046;-76
2022/01/06 04:35:11;;;;;;;0.80;0.80;;;0.30;99.90;;;;;;5114799;28;20068;-76
2022/01/06 04:37:37;;;;;;;0.70;0.70;;;0.30;99.90;;;;;;5114611;28;20483;-75
2022/01/06 04:40:04;;;;;;;0.70;0.70;;;0.40;99.90;;;;;;5114834;28;20039;-77
2022/01/06 04:42:30;;;;;;;0.70;0.70;;;0.20;99.90;;;;;;5114318;28;20292;-75
2022/01/06 04:44:56;;;;;;;0.75;0.75;;;0.20;99.90;;;;;;5114661;28;20122;-76
2022/01/06 04:47:21;;;;;;;0.70;0.70;;;0.30;99.90;;;;;;5113542;28;20035;-76
2022/01/06 04:49:47;;;;;;;0.77;0.77;;;0.10;99.90;;;;;;5114588;28;20383;-76
2022/01/06 04:52:13;;;;;;;0.70;0.70;;;0.00;99.90;;;;;;5114573;28;20044;-77
2022/01/06 04:54:38;;;;;;;0.70;0.70;;;0.00;99.90;;;;;;5115303;28;20056;-76
2022/01/06 04:57:04;;;;;;;0.70;0.70;;;0.00;99.90;;;;;;5114556;28;20058;-76
2022/01/06 04:59:29;;;;;;;0.70;0.70;;;0.00;99.90;;;;;;5114552;28;20122;-76
2022/01/06 05:01:55;;;;;;;0.70;0.70;;;0.00;99.90;;;;;;5113497;28;20388;-76
2022/01/06 05:04:20;;;;;;;0.80;0.80;;;0.10;99.90;;;;;;5114371;28;20495;-77
2022/01/06 05:06:46;;;;;;;0.80;0.80;;;-0.10;99.90;;;;;;5114436;28;20434;-76
2022/01/06 05:09:12;;;;;;;0.70;0.70;;;-0.20;99.90;;;;;;5114482;28;20047;-76
2022/01/06 05:11:37;;;;;;;0.77;0.77;;;-0.10;99.90;;;;;;5113090;28;20040;-76
2022/01/06 05:14:03;;;;;;;0.70;0.70;;;-0.20;99.90;;;;;;5114275;28;20096;-76
2022/01/06 05:16:28;;;;;;;0.80;0.80;;;-0.20;99.90;;;;;;5114334;28;20048;-77
2022/01/06 05:18:54;;;;;;;2.33;2.20;;;-0.20;99.90;;;;;;5113256;28;20043;-77
2022/01/06 05:21:20;;;;;;;0.80;0.80;;;-0.20;99.90;;;;;;5113222;28;20116;-76
2022/01/06 05:23:45;;;;;;;0.80;0.80;;;-0.30;99.90;;;;;;5113446;28;20372;-77
2022/01/06 05:26:12;;;;;;;0.80;0.80;;;-0.30;99.90;;;;;;5112979;28;20123;-77
2022/01/06 05:28:37;;;;;;;0.80;0.80;;;-0.30;99.90;;;;;;5114253;28;20051;-77
2022/01/06 05:31:03;;;;;;;0.70;0.70;;;-0.30;99.90;;;;;;5112791;28;20043;-77
2022/01/06 05:33:29;;;;;;;0.70;0.70;;;-0.30;99.90;;;;;;5114101;28;20368;-77
2022/01/06 05:35:54;;;;;;;0.70;0.70;;;-0.40;99.90;;;;;;5117722;28;20065;-77
2022/01/06 05:38:20;;;;;;;0.80;0.80;;;-0.40;99.90;;;;;;5117960;28;20059;-77
2022/01/06 05:40:45;;;;;;;0.80;0.80;;;-0.40;99.90;;;;;;5118538;28;20044;-77
2022/01/06 05:43:11;;;;;;;0.70;0.70;;;-0.30;99.90;;;;;;5117057;28;20116;-77
2022/01/06 05:45:37;;;;;;;0.77;0.77;;;-0.50;99.90;;;;;;5118363;28;20051;-77
2022/01/06 05:48:03;;;;;;;0.70;0.70;;;-0.40;99.90;;;;;;5118240;28;20044;-77
2022/01/06 05:50:29;;;;;;;0.70;0.70;;;-0.50;99.90;;;;;;5116845;28;20048;-77
2022/01/06 05:52:54;;;;;;;0.80;0.80;;;-0.40;99.90;;;;;;5118243;28;20055;-77
2022/01/06 05:55:23;;;;;;;0.70;0.70;;;-0.50;99.90;;;;;;5117995;28;20051;-76
2022/01/06 05:57:50;;;;;;;0.80;0.80;;;-0.50;99.90;;;;;;5117896;28;20090;-77
2022/01/06 06:00:16;;;;;;;0.70;0.70;;;-0.50;99.90;;;;;;5117035;28;20055;-77
2022/01/06 06:02:41;;;;;;;0.70;0.70;;;-0.50;99.90;;;;;;5117850;28;20051;-76
2022/01/06 06:05:07;;;;;;;0.70;0.70;;;-0.60;99.90;;;;;;5117752;28;20476;-77
2022/01/06 06:07:33;;;;;;;0.80;0.80;;;-0.50;99.90;;;;;;5117745;28;20035;-77
2022/01/06 06:09:58;;;;;;;0.80;0.80;;;-0.50;99.90;;;;;;5117623;28;20054;-77
2022/01/06 06:12:24;;;;;;;0.80;0.80;;;-0.60;99.90;;;;;;5117673;28;20361;-77
2022/01/06 06:14:49;;;;;;;0.70;0.70;;;-0.70;99.90;;;;;;5117660;28;20039;-77
2022/01/06 06:17:15;;;;;;;0.80;0.80;;;-0.60;99.90;;;;;;5116621;28;20093;-77
2022/01/06 06:19:40;;;;;;;0.80;0.80;;;-0.60;99.90;;;;;;5116188;28;20097;-77
2022/01/06 06:22:06;;;;;;;0.80;0.80;;;-0.60;99.90;;;;;;5117457;28;20052;-77
2022/01/06 06:24:33;;;;;;;0.80;0.80;;;-0.70;99.90;;;;;;5117420;28;20058;-77
2022/01/06 06:26:59;;;;;;;0.80;0.80;;;-0.70;99.90;;;;;;5116439;28;20060;-77
2022/01/06 06:29:24;;;;;;;0.80;0.80;;;-0.70;99.90;;;;;;5116322;28;20040;-76
2022/01/06 06:31:50;;;;;;;0.90;0.90;;;-0.70;99.90;;;;;;5116345;28;20502;-77
2022/01/06 06:34:15;;;;;;;0.70;0.70;;;-0.70;99.90;;;;;;5116218;28;20047;-77
2022/01/06 06:36:41;;;;;;;0.80;0.80;;;-0.70;99.90;;;;;;5116446;28;20035;-77
2022/01/06 06:39:07;;;;;;;0.70;0.70;;;-0.70;99.90;;;;;;5117179;28;20556;-77
2022/01/06 06:41:33;;;;;;;0.80;0.80;;;-0.70;99.90;;;;;;5117103;28;20044;-75
2022/01/06 06:43:59;;;;;;;0.80;0.80;;;-0.80;99.90;;;;;;5117105;28;20402;-79
2022/01/06 06:46:24;;;;;;;0.80;0.80;;;-0.80;99.90;;;;;;5115740;28;20594;-78
2022/01/06 06:48:50;;;;;;;0.80;0.80;;;-0.80;99.90;;;;;;5116787;28;20105;-79
2022/01/06 06:51:16;;;;;;;0.80;0.80;;;-0.70;99.90;;;;;;5116738;28;20043;-76
2022/01/06 06:53:42;;;;;;;0.70;0.70;;;-0.80;99.90;;;;;;5116852;28;20058;-76
2022/01/06 06:56:08;;;;;;;0.80;0.80;;;-0.70;99.90;;;;;;5116753;27;20043;-73
2022/01/06 06:58:34;;;;;;;0.80;0.80;;;-0.70;99.90;;;;;;5116958;28;20449;-76
2022/01/06 07:00:59;;;;;;;0.80;0.80;;;0.30;99.90;;;;;;5116758;28;20065;-76
2022/01/06 07:03:25;;;;;;;0.80;0.80;;;-0.80;99.90;;;;;;5115632;28;20487;-75
2022/01/06 07:05:51;;;;;;;0.80;0.80;;;-0.80;99.90;;;;;;5116543;28;20082;-74
2022/01/06 07:08:16;;;;;;;0.80;0.80;;;-0.80;99.90;;;;;;5116718;28;20044;-79
2022/01/06 07:10:42;;;;;;;0.80;0.80;;;-0.70;99.90;;;;;;5115393;28;20044;-81
2022/01/06 07:13:08;;;;;;;0.70;0.70;;;-0.70;99.90;;;;;;5116623;28;20051;-78
2022/01/06 07:15:36;;;;;;;0.80;0.80;;;-0.80;99.90;;;;;;5116832;28;20081;-79
2022/01/06 07:18:02;;;;;;;0.77;0.77;;;-0.80;99.90;;;;;;5116494;28;20137;-80
2022/01/06 07:20:28;;;;;;;0.70;0.70;;;-0.80;99.90;;;;;;5116358;28;20123;-79
2022/01/06 07:22:53;;;;;;;0.70;0.70;;;-0.80;99.90;;;;;;5115668;28;20050;-81
2022/01/06 07:25:19;;;;;;;0.80;0.80;;;-0.40;99.90;;;;;;5116235;28;20039;-79
2022/01/06 07:27:45;;;;;;;0.80;0.80;;;-1.00;99.90;;;;;;5116089;28;20044;-81
2022/01/06 07:30:10;;;;;;;0.80;0.80;;;-0.50;99.90;;;;;;5115096;28;20475;-80
2022/01/06 07:32:43;;;;;;;0.80;0.80;;;-0.90;99.90;;;;;;5115990;28;20392;-80
2022/01/06 07:35:09;;;;;;;0.80;0.80;;;-0.90;99.90;;;;;;5115216;28;20048;-79
2022/01/06 07:37:34;;;;;;;0.80;0.80;;;-0.90;99.90;;;;;;5114898;28;20044;-80
2022/01/06 07:40:00;;;;;;;0.73;0.73;;;-0.90;99.90;;;;;;5115443;28;20562;-81
2022/01/06 07:42:25;;;;;;;0.80;0.80;;;-0.90;99.90;;;;;;5116121;28;20043;-80
2022/01/06 07:44:51;;;;;;;0.80;0.80;;;-0.90;99.90;;;;;;5115033;28;20054;-83
2022/01/06 07:47:17;;;;;;;0.80;0.80;;;-0.90;99.90;;;;;;5114494;28;20085;-82
2022/01/06 07:49:42;;;;;;;0.70;0.70;;;-0.80;99.90;;;;;;5115420;28;20100;-82
2022/01/06 07:52:08;;;;;;;0.80;0.80;;;-0.50;99.90;;;;;;5115437;28;20559;-82
2022/01/06 07:54:34;;;;;;;0.80;0.80;;;;;;;;;;5114895;28;20419;-81
2022/01/06 07:56:59;;;;;;;0.80;0.80;;;-0.90;99.90;;;;;;5115003;28;20106;-80
2022/01/06 07:59:25;;;;;;;0.80;0.80;;;-1.00;99.90;;;;;;5114533;28;20118;-81
2022/01/06 08:01:50;;;;;;;0.80;0.80;;;-0.90;99.90;;;;;;5114632;28;20036;-81
2022/01/06 08:04:16;;;;;;;0.80;0.80;;;-0.40;99.90;;;;;;5097314;28;20040;-81
2022/01/06 08:06:41;;;;;;;0.80;0.80;;;-0.90;99.90;;;;;;5115523;28;20044;-82
2022/01/06 08:09:07;;;;;;;0.90;0.90;;;-0.80;99.90;;;;;;5115385;28;20046;-87
2022/01/06 08:11:33;;;;;;;0.80;0.80;;;-0.90;99.90;;;;;;5115336;28;20498;-83
2022/01/06 08:13:58;;;;;;;0.80;0.80;;;-0.90;99.90;;;;;;5115448;28;20144;-80
2022/01/06 08:16:24;;;;;;;0.80;0.80;;;-0.90;99.90;;;;;;5115247;28;20117;-80
2022/01/06 08:18:49;;;;;;;0.70;0.70;;;-0.90;99.90;;;;;;5114452;28;20036;-80
2022/01/06 08:21:15;;;;;;;0.80;0.80;;;-0.90;99.90;;;;;;5114739;28;20136;-81
2022/01/06 08:23:40;;;;;;;0.80;0.80;;;0.00;99.90;;;;;;5114539;28;20032;-77
2022/01/06 08:26:06;;;;;;;0.80;0.80;;;-0.60;99.90;;;;;;5114648;28;20046;-75
2022/01/06 08:28:32;;;;;;;0.80;0.80;;;-0.90;99.90;;;;;;5114204;28;20047;-78
2022/01/06 08:30:57;;;;;;;0.80;0.80;;;-0.90;99.90;;;;;;5114388;28;20118;-79
2022/01/06 08:33:23;;;;;;;0.80;0.80;;;-0.90;99.90;;;;;;5114435;28;20083;-81
2022/01/06 08:35:48;;;;;;;0.80;0.80;;;-0.80;99.90;;;;;;5114599;28;20048;-80
2022/01/06 08:38:15;;;;;;;0.80;0.80;;;-0.80;99.90;;;;;;5113397;28;20073;-81
2022/01/06 08:40:40;;;;;;;0.70;0.70;;;-0.80;99.90;;;;;;5113470;28;20032;-80
2022/01/06 08:43:06;;;;;;;0.70;0.70;;;-0.80;99.90;;;;;;5114202;28;20823;-84
2022/01/06 08:45:32;;;;;;;0.82;0.82;;;-0.80;99.90;;;;;;5113654;28;20413;-81
2022/01/06 08:47:58;;;;;;;0.80;0.80;;;-0.70;99.90;;;;;;5113302;28;20464;-80
2022/01/06 08:50:24;;;;;;;0.80;0.80;;;-0.70;99.90;;;;;;5114801;27;20079;-80
2022/01/06 08:52:51;;;;;;;0.70;0.70;;;-0.70;99.90;;;;;;5114344;28;20042;-81
2022/01/06 08:55:16;;;;;;;0.80;0.80;;;-0.60;99.90;;;;;;5115067;28;20047;-83
2022/01/06 08:57:42;;;;;;;0.80;0.80;;;-0.60;99.90;;;;;;5114800;28;20044;-79
2022/01/06 09:00:10;;;;;;;0.80;0.80;;;-0.60;99.90;;;;;;5113732;28;20043;-82
2022/01/06 09:02:36;;;;;;;0.80;0.80;;;-0.50;99.90;;;;;;5112816;28;20395;-82
2022/01/06 09:05:05;;;;;;;0.80;0.80;;;-0.50;99.90;;;;;;5112993;28;20043;-83
2022/01/06 09:07:32;;;;;;;0.70;0.70;;;-0.40;99.90;;;;;;5113482;28;20043;-83
2022/01/06 09:09:58;;;;;;;0.80;0.80;;;-0.40;99.90;;;;;;5113400;28;20048;-84
2022/01/06 09:12:23;;;;;;;0.80;0.80;;;-0.30;99.90;;;;;;5114312;28;20369;-82
2022/01/06 09:14:49;;;;;;;0.80;0.80;;;-0.30;99.90;;;;;;5114280;28;20065;-83
2022/01/06 09:17:15;;;;;;;0.80;0.80;;;-0.20;99.90;;;;;;5138231;27;20044;-83
2022/01/06 09:19:41;;;;;;;0.80;0.80;;;-0.20;99.90;;;;;;5114519;28;20043;-83
2022/01/06 09:22:07;;;;;;;0.70;0.70;;;-0.10;99.90;;;;;;5114661;28;20087;-83
2022/01/06 09:24:33;;;;;;;0.80;0.80;;;0.00;99.90;;;;;;5114230;28;20044;-82
2022/01/06 09:27:00;;;;;;;0.80;0.80;;;0.00;99.90;;;;;;5115311;28;20043;-82
2022/01/06 09:29:26;;;;;;;;;;;0.10;99.90;;;;;;5116156;28;20039;-83
2022/01/06 09:31:51;;;;;;;0.73;0.73;;;0.10;99.90;;;;;;5118592;28;19992;-84
2022/01/06 09:34:17;;;;;;;0.80;0.80;;;0.20;99.90;;;;;;5116652;28;20036;-85
2022/01/06 09:36:42;;;;;;;0.70;0.70;;;0.20;99.90;;;;;;5115051;28;20517;-83
2022/01/06 09:39:11;;;;;;;0.70;0.70;;;1.30;99.90;;;;;;5097599;28;20050;-86
2022/01/06 09:41:37;;;;;;;0.70;0.70;;;0.40;99.90;;;;;;5113028;28;20391;-85
2022/01/06 09:44:03;;;;;;;0.80;0.80;;;0.40;99.90;;;;;;5113137;28;20044;-84
2022/01/06 09:46:30;;;;;;;0.80;0.80;;;0.50;99.90;;;;;;5112999;28;20467;-84
2022/01/06 09:48:59;;;;;;;0.77;0.77;;;0.50;99.90;;;;;;5114089;28;20044;-85
2022/01/06 09:51:26;;;;;;;0.70;0.70;;;0.60;99.90;;;;;;5113842;28;20035;-83
2022/01/06 09:53:56;;;;;;;0.70;0.70;;;0.60;99.90;;;;;;5114081;28;20108;-83
2022/01/06 09:56:22;;;;;;;0.80;0.80;;;0.80;99.90;;;;;;5113573;28;20526;-82
2022/01/06 09:58:48;;;;;;;0.80;0.80;;;0.80;99.90;;;;;;5113833;28;20047;-84
2022/01/06 10:01:14;;;;;;;0.70;0.70;;;0.90;99.90;;;;;;5112606;28;20131;-83
2022/01/06 10:03:41;;;;;;;0.70;0.70;;;0.90;99.90;;;;;;5113829;28;20130;-83
2022/01/06 10:06:21;;;;;;;0.80;0.80;;;0.90;99.90;;;;;;5113774;28;20051;-83
2022/01/06 10:08:57;;;;;;;0.80;0.80;;;1.00;99.90;;;;;;5112967;28;20093;-85
2022/01/06 10:11:25;;;;;;;0.80;0.80;;;1.10;99.90;;;;;;5113461;28;20495;-84
2022/01/06 10:14:03;;;;;;;1.42;1.33;;;1.10;99.90;;;;;;5113581;28;20097;-85
2022/01/06 10:16:29;;;;;;;0.70;0.70;;;1.20;99.90;;;;;;5113843;28;20491;-84
2022/01/06 10:18:59;;;;;;;0.80;0.80;;;0.60;99.90;;;;;;5114008;28;20368;-83
2022/01/06 10:21:29;;;;;;;0.70;0.70;;;1.30;99.90;;;;;;5116266;28;20113;-83
2022/01/06 10:24:02;;;;;;;1.35;1.27;;;1.40;99.90;;;;;;5116444;28;20065;-85
2022/01/06 10:26:28;;;;;;;0.80;0.80;;;1.50;99.90;;;;;;5117349;27;20387;-83
2022/01/06 10:28:53;;;;;;;0.70;0.70;;;1.50;99.90;;;;;;5117120;28;20054;-86
2022/01/06 10:31:30;;;;;;;0.70;0.70;;;1.50;99.90;;;;;;5117114;28;20391;-83
2022/01/06 10:33:56;;;;;;;0.80;0.80;;;1.50;99.90;;;;;;5117459;28;20365;-83
2022/01/06 10:36:30;;;;;;;0.70;0.70;;;1.60;99.90;;;;;;5117225;28;20126;-83
2022/01/06 10:38:58;;;;;;;0.70;0.70;;;1.60;99.90;;;;;;5117088;28;20040;-83
2022/01/06 10:41:27;;;;;;;0.70;0.70;;;1.70;99.90;;;;;;5117143;28;20050;-82
2022/01/06 10:43:57;;;;;;;0.70;0.70;;;1.70;99.90;;;;;;5117357;28;20043;-83
2022/01/06 10:46:43;;;;;;;0.70;0.70;;;1.80;99.90;;;;;;5117297;28;20087;-83
2022/01/06 10:49:13;;;;;;;0.60;0.60;;;1.90;99.90;;;;;;5116999;27;20431;-83
2022/01/06 10:51:46;;;;;;;0.70;0.70;;;2.00;99.90;;;;;;5117118;28;20078;-82
2022/01/06 10:54:17;;;;;;;0.60;0.60;;;2.10;99.90;;;;;;5117394;28;20059;-82
2022/01/06 10:56:43;;;;;;;1.42;1.33;;;2.20;99.90;;;;;;5116823;28;20048;-83
2022/01/06 10:59:09;;;;;;;0.70;0.70;;;2.30;99.90;;;;;;5116681;28;20123;-83
2022/01/06 11:01:35;;;;;;;0.70;0.70;;;2.30;99.90;;;;;;5116735;28;20081;-83
2022/01/06 11:04:02;;;;;;;0.70;0.70;;;2.40;99.90;;;;;;5116619;28;20050;-82
2022/01/06 11:06:29;;;;;;;0.70;0.70;;;2.50;99.90;;;;;;5117118;28;20088;-83
2022/01/06 11:08:55;;;;;;;0.70;0.70;;;2.60;99.90;;;;;;5116864;28;20559;-83
2022/01/06 11:11:45;;;;;;;0.70;0.70;;;2.70;99.90;;;;;;5116558;28;20126;-83
2022/01/06 11:14:17;;;;;;;0.70;0.70;;;2.70;99.90;;;;;;5116492;28;20423;-83
2022/01/06 11:16:43;;;;;;;0.70;0.70;;;2.80;99.90;;;;;;5116986;28;20053;-85
2022/01/06 11:19:11;;;;;;;0.70;0.70;;;2.90;99.90;;;;;;5116226;28;20036;-82
2022/01/06 11:21:43;;;;;;;0.60;0.60;;;3.00;99.90;;;;;;5115552;28;20052;-84
2022/01/06 11:24:09;;;;;;;0.80;0.80;;;3.00;99.90;;;;;;5116692;28;20423;-84
2022/01/06 11:26:35;;;;;;;1.38;1.33;;;3.10;99.90;;;;;;5116276;28;20514;-83
2022/01/06 11:29:01;;;;;;;0.60;0.60;;;3.20;99.90;;;;;;5116212;28;20039;-82
2022/01/06 11:31:40;;;;;;;0.70;0.70;;;3.30;99.90;;;;;;5116093;28;20437;-82
2022/01/06 11:34:17;;;;;;;0.70;0.70;;;3.30;99.90;;;;;;5115961;28;20035;-82
2022/01/06 11:36:46;;;;;;;0.70;0.70;;;3.40;99.90;;;;;;5116036;28;20051;-82
2022/01/06 11:39:29;;;;;;;0.70;0.70;;;3.50;99.90;;;;;;5115985;28;20050;-82
2022/01/06 11:41:58;;;;;;;0.70;0.70;;;3.60;99.90;;;;;;5115295;28;20043;-82
2022/01/06 11:44:26;;;;;;;0.57;0.57;;;3.60;99.90;;;;;;5116211;28;20043;-82
2022/01/06 11:46:56;;;;;;;0.60;0.60;;;3.70;99.90;;;;;;5114790;28;20043;-82
2022/01/06 11:49:44;;;;;;;0.60;0.60;;;3.80;99.90;;;;;;5115735;28;20036;-76
2022/01/06 11:52:14;;;;;;;0.60;0.60;;;3.70;99.90;;;;;;5115718;28;20472;-78
2022/01/06 11:54:56;;;;;;;0.60;0.60;;;3.90;99.90;;;;;;5116097;28;20060;-79
2022/01/06 11:57:38;;;;;;;0.60;0.60;;;4.00;99.90;;;;;;5115874;28;20039;-82
2022/01/06 12:00:25;;;;;;;1.60;1.25;;;4.00;99.90;;;;;;5114267;28;20433;-81
2022/01/06 12:03:03;;;;;;;0.60;0.60;;;4.10;99.90;;;;;;5114576;28;20035;-80
2022/01/06 12:05:52;;;;;;;0.60;0.60;;;4.10;99.90;;;;;;5114675;28;20045;-81
2022/01/06 12:08:33;;;;;;;0.60;0.60;;;4.20;99.90;;;;;;5114726;28;20066;-83
2022/01/06 12:10:59;;;;;;;0.70;0.70;;;4.30;99.90;;;;;;5114085;28;20096;-81
2022/01/06 12:13:24;;;;;;;0.70;0.70;;;4.40;99.90;;;;;;5114103;28;20440;-80
2022/01/06 12:15:52;;;;;;;0.60;0.60;;;4.40;99.90;;;;;;5115198;28;20036;-81
2022/01/06 12:18:26;;;;;;;0.60;0.60;;;4.50;99.90;;;;;;5115156;28;20044;-83
2022/01/06 12:20:55;;;;;;;0.60;0.60;;;4.60;99.90;;;;;;5114018;28;20032;-83
2022/01/06 12:23:21;;;;;;;0.65;0.65;;;4.60;99.90;;;;;;5115022;28;20097;-82
2022/01/06 12:25:58;;;;;;;0.60;0.60;;;4.70;99.90;;;;;;5114834;28;20467;-83
2022/01/06 12:28:25;;;;;;;1.83;1.52;;;4.70;99.90;;;;;;5114764;28;20044;-75
2022/01/06 12:31:00;;;;;;;0.90;0.90;;;4.80;99.90;;;;;;5114927;28;20048;-81
2022/01/06 12:33:26;;;;;;;0.60;0.60;;;4.80;99.90;;;;;;5114178;28;20067;-78
2022/01/06 12:35:54;;;;;;;0.60;0.60;;;4.80;99.90;;;;;;5114165;28;20043;-83
2022/01/06 12:38:31;;;;;;;0.60;0.60;;;4.80;99.90;;;;;;5114866;28;20047;-79
2022/01/06 12:40:58;;;;;;;0.60;0.60;;;4.80;99.90;;;;;;5113684;28;20079;-83
2022/01/06 12:43:29;;;;;;;0.70;0.70;;;4.80;99.90;;;;;;5113494;28;20045;-81
2022/01/06 12:46:03;;;;;;;0.60;0.60;;;4.80;99.90;;;;;;5114945;28;20047;-76
2022/01/06 12:48:31;;;;;;;0.80;0.80;;;4.80;99.90;;;;;;5114783;28;20047;-82
2022/01/06 12:50:57;;;;;;;0.57;0.57;;;4.80;99.90;;;;;;5113425;28;20071;-79
2022/01/06 12:53:29;;;;;;;0.60;0.60;;;4.80;99.90;;;;;;5113442;28;20066;-80
2022/01/06 12:55:55;;;;;;;0.60;0.60;;;4.80;99.90;;;;;;5114599;28;20055;-81
2022/01/06 12:58:27;;;;;;;0.77;0.77;;;4.80;99.90;;;;;;5113301;28;20050;-82
2022/01/06 13:00:59;;;;;;;1.02;0.70;;;4.80;99.90;;;;;;5111682;28;20142;-79
2022/01/06 13:03:29;;;;;;;0.60;0.60;;;4.80;99.90;;;;;;5112423;28;20051;-84
2022/01/06 13:05:56;;;;;;;0.60;0.60;;;4.80;99.90;;;;;;5113343;28;20040;-79
2022/01/06 13:08:21;;;;;;;0.70;0.70;;;4.80;99.90;;;;;;5113786;28;20054;-82